createdAt,value
2022-11-29T00:02:03.953Z,17.67
2022-11-29T00:04:30.824Z,18.08
2022-11-29T00:06:57.421Z,15.38
2022-11-29T00:09:24.007Z,17.10
2022-11-29T00:12:09.561Z,17.13
2022-11-29T00:14:36.169Z,16.75
2022-11-29T00:17:04.264Z,17.27
2022-11-29T00:19:32.941Z,16.08
2022-11-29T00:22:00.406Z,14.63
2022-11-29T00:24:27.205Z,16.95
2022-11-29T00:26:53.775Z,14.73
2022-11-29T00:29:21.443Z,16.65
2022-11-29T00:31:48.132Z,15.20
2022-11-29T00:34:14.770Z,15.23
2022-11-29T00:36:41.539Z,17.00
2022-11-29T00:39:11.532Z,18.80
2022-11-29T00:41:38.819Z,14.85
2022-11-29T00:44:05.529Z,16.90
2022-11-29T00:46:32.135Z,15.95
2022-11-29T00:48:59.051Z,13.93
2022-11-29T00:51:25.648Z,16.33
2022-11-29T00:53:52.223Z,16.85
2022-11-29T00:56:18.803Z,15.93
2022-11-29T00:58:45.675Z,15.27
2022-11-29T01:01:12.399Z,16.15
2022-11-29T01:03:39.392Z,17.77
2022-11-29T01:06:11.498Z,15.02
2022-11-29T01:08:38.666Z,17.27
2022-11-29T01:11:13.931Z,15.52
2022-11-29T01:13:42.596Z,16.05
2022-11-29T01:16:09.615Z,16.17
2022-11-29T01:18:36.896Z,17.88
2022-11-29T01:21:07.421Z,17.35
2022-11-29T01:23:35.021Z,17.38
2022-11-29T01:26:05.244Z,16.67
2022-11-29T01:28:32.333Z,17.02
2022-11-29T01:30:59.133Z,15.30
2022-11-29T01:33:26.267Z,16.75
2022-11-29T01:35:54.668Z,16.00
2022-11-29T01:38:22.321Z,20.40
2022-11-29T01:41:07.271Z,18.13
2022-11-29T01:43:52.815Z,16.85
2022-11-29T01:46:19.453Z,15.02
2022-11-29T01:48:46.102Z,16.00
2022-11-29T01:51:12.697Z,16.73
2022-11-29T01:53:40.099Z,16.23
2022-11-29T01:56:07.986Z,17.63
2022-11-29T02:01:26.440Z,16.15
2022-11-29T02:03:53.606Z,15.95
2022-11-29T02:06:20.608Z,18.10
2022-11-29T02:08:47.204Z,16.25
2022-11-29T02:11:32.480Z,17.52
2022-11-29T02:14:40.107Z,14.77
2022-11-29T02:17:18.660Z,16.88
2022-11-29T02:20:22.956Z,16.08
2022-11-29T02:23:04.947Z,16.98
2022-11-29T02:25:34.608Z,15.02
2022-11-29T02:28:16.624Z,16.73
2022-11-29T02:31:27.307Z,15.38
2022-11-29T02:34:11.059Z,16.20
2022-11-29T02:36:46.319Z,20.95
2022-11-29T02:39:34.678Z,21.92
2022-11-29T02:42:26.047Z,19.25
2022-11-29T02:45:04.592Z,16.63
2022-11-29T02:48:07.833Z,17.27
2022-11-29T02:50:56.044Z,16.45
2022-11-29T02:53:56.228Z,15.88
2022-11-29T02:56:51.428Z,14.65
2022-11-29T02:59:47.785Z,14.80
2022-11-29T03:02:22.808Z,16.63
2022-11-29T03:05:20.364Z,17.27
2022-11-29T03:07:53.651Z,16.20
2022-11-29T03:11:04.457Z,16.70
2022-11-29T03:13:54.277Z,17.20
2022-11-29T03:16:42.973Z,23.02
2022-11-29T03:19:40.840Z,22.67
2022-11-29T03:22:31.628Z,18.00
2022-11-29T03:25:18.476Z,16.30
2022-11-29T03:28:04.220Z,17.15
2022-11-29T03:30:34.405Z,15.00
2022-11-29T03:33:21.430Z,14.43
2022-11-29T03:36:01.777Z,15.23
2022-11-29T03:38:34.039Z,16.10
2022-11-29T03:43:53.108Z,13.43
2022-11-29T03:46:52.171Z,16.75
2022-11-29T03:49:43.523Z,17.02
2022-11-29T03:52:15.728Z,23.85
2022-11-29T03:55:07.086Z,20.13
2022-11-29T03:57:51.019Z,18.45
2022-11-29T04:00:19.020Z,14.93
2022-11-29T04:03:05.902Z,15.85
2022-11-29T04:05:47.518Z,15.73
2022-11-29T04:08:33.608Z,14.63
2022-11-29T04:11:59.030Z,19.33
2022-11-29T04:14:56.673Z,15.70
2022-11-29T04:17:29.005Z,18.02
2022-11-29T04:22:49.889Z,17.45
2022-11-29T04:25:32.001Z,15.05
2022-11-29T04:28:23.396Z,15.20
2022-11-29T04:30:49.956Z,17.45
2022-11-29T04:33:30.100Z,14.88
2022-11-29T04:36:41.434Z,18.38
2022-11-29T04:39:22.994Z,13.10
2022-11-29T04:42:40.328Z,16.90
2022-11-29T04:45:12.249Z,18.02
2022-11-29T04:47:56.086Z,16.83
2022-11-29T04:50:37.477Z,17.67
2022-11-29T04:53:41.907Z,20.33
2022-11-29T04:56:40.036Z,17.38
2022-11-29T04:59:29.589Z,17.50
2022-11-29T05:02:08.298Z,21.33
2022-11-29T05:04:56.037Z,24.25
2022-11-29T05:07:50.834Z,20.23
2022-11-29T05:10:36.502Z,17.20
2022-11-29T05:13:31.235Z,16.83
2022-11-29T05:16:07.950Z,18.65
2022-11-29T05:18:40.344Z,19.00
2022-11-29T05:21:21.320Z,17.73
2022-11-29T05:24:06.688Z,18.60
2022-11-29T05:26:45.153Z,19.05
2022-11-29T05:29:33.004Z,19.65
2022-11-29T05:32:21.232Z,16.08
2022-11-29T05:34:51.109Z,17.55
2022-11-29T05:37:27.050Z,16.83
2022-11-29T05:40:08.956Z,19.27
2022-11-29T05:43:00.893Z,15.70
2022-11-29T05:45:49.545Z,17.85
2022-11-29T05:48:27.347Z,17.65
2022-11-29T05:51:01.319Z,17.05
2022-11-29T05:53:43.209Z,18.42
2022-11-29T05:56:21.754Z,16.45
2022-11-29T05:58:54.219Z,18.23
2022-11-29T06:01:24.747Z,16.98
2022-11-29T06:04:18.946Z,16.35
2022-11-29T06:07:02.358Z,16.95
2022-11-29T06:09:44.216Z,16.80
2022-11-29T06:12:21.563Z,16.05
2022-11-29T06:15:29.997Z,18.08
2022-11-29T06:18:26.039Z,16.27
2022-11-29T06:21:31.055Z,18.40
2022-11-29T06:24:28.048Z,16.58
2022-11-29T06:27:22.920Z,16.20
2022-11-29T06:29:57.910Z,17.08
2022-11-29T06:32:36.013Z,15.43
2022-11-29T06:35:07.336Z,17.63
2022-11-29T06:37:44.971Z,15.50
2022-11-29T06:40:14.218Z,15.43
2022-11-29T06:42:40.785Z,18.17
2022-11-29T06:45:10.354Z,15.15
2022-11-29T06:47:45.188Z,17.02
2022-11-29T06:50:36.192Z,18.13
2022-11-29T06:53:26.047Z,19.02
2022-11-29T06:56:07.016Z,17.65
2022-11-29T06:58:55.414Z,17.23
2022-11-29T07:01:56.118Z,17.65
2022-11-29T07:04:46.379Z,15.35
2022-11-29T07:07:18.847Z,17.30
2022-11-29T07:12:13.268Z,15.25
2022-11-29T07:14:40.195Z,19.15
2022-11-29T07:17:22.592Z,17.67
2022-11-29T07:20:03.346Z,18.27
2022-11-29T07:22:57.868Z,16.40
2022-11-29T07:26:06.625Z,15.75
2022-11-29T07:28:33.132Z,18.73
2022-11-29T07:31:13.444Z,16.52
2022-11-29T07:34:10.749Z,18.60
2022-11-29T07:37:00.503Z,16.85
2022-11-29T07:39:39.043Z,16.42
2022-11-29T07:42:38.061Z,17.42
2022-11-29T07:45:27.621Z,15.25
2022-11-29T07:47:54.240Z,15.77
2022-11-29T07:50:21.485Z,19.33
2022-11-29T07:52:49.054Z,16.55
2022-11-29T07:55:19.138Z,18.65
2022-11-29T07:57:46.493Z,19.65
2022-11-29T08:00:14.035Z,15.27
2022-11-29T08:02:41.739Z,20.42
2022-11-29T08:05:09.364Z,17.33
2022-11-29T08:07:37.747Z,18.73
2022-11-29T08:10:07.629Z,18.50
2022-11-29T08:12:34.256Z,20.52
2022-11-29T08:15:01.501Z,16.45
2022-11-29T08:17:28.266Z,20.45
2022-11-29T08:19:54.841Z,16.75
2022-11-29T08:22:21.426Z,16.48
2022-11-29T08:24:48.408Z,16.20
2022-11-29T08:27:15.129Z,18.38
2022-11-29T08:29:41.729Z,18.15
2022-11-29T08:32:08.996Z,18.05
2022-11-29T08:34:35.611Z,19.50
2022-11-29T08:37:02.250Z,19.90
2022-11-29T08:39:28.818Z,19.48
2022-11-29T08:41:55.422Z,17.65
2022-11-29T08:44:22.105Z,15.52
2022-11-29T08:47:07.159Z,17.88
2022-11-29T08:49:33.796Z,17.00
2022-11-29T08:52:32.197Z,20.88
2022-11-29T08:55:02.970Z,16.80
2022-11-29T08:57:39.859Z,18.08
2022-11-29T09:00:08.754Z,17.83
2022-11-29T09:02:37.051Z,18.00
2022-11-29T09:05:05.342Z,20.13
2022-11-29T09:07:32.542Z,19.75
2022-11-29T09:10:00.901Z,18.50
2022-11-29T09:12:27.544Z,17.30
2022-11-29T09:14:54.128Z,19.50
2022-11-29T09:17:20.733Z,17.20
2022-11-29T09:19:47.348Z,18.73
2022-11-29T09:22:13.924Z,20.25
2022-11-29T09:24:40.520Z,19.98
2022-11-29T09:27:07.161Z,17.67
2022-11-29T09:29:33.879Z,16.60
2022-11-29T09:32:00.512Z,19.30
2022-11-29T09:34:27.137Z,18.77
2022-11-29T09:36:53.822Z,22.55
2022-11-29T09:39:20.471Z,19.60
2022-11-29T09:42:19.283Z,19.48
2022-11-29T09:45:14.484Z,18.00
2022-11-29T09:47:59.822Z,18.15
2022-11-29T09:51:12.802Z,19.20
2022-11-29T09:53:49.460Z,21.60
2022-11-29T09:56:22.023Z,19.17
2022-11-29T09:58:57.779Z,20.20
2022-11-29T10:01:29.890Z,17.77
2022-11-29T10:04:12.172Z,18.95
2022-11-29T10:06:43.125Z,20.27
2022-11-29T10:09:19.117Z,17.52
2022-11-29T10:11:57.703Z,19.10
2022-11-29T10:14:34.309Z,21.70
2022-11-29T10:17:12.581Z,21.33
2022-11-29T10:19:51.276Z,21.05
2022-11-29T10:22:34.652Z,20.88
2022-11-29T10:25:02.656Z,23.63
2022-11-29T10:27:29.989Z,22.98
2022-11-29T10:29:59.157Z,19.40
2022-11-29T10:32:30.701Z,23.10
2022-11-29T10:34:58.570Z,20.05
2022-11-29T10:37:25.251Z,20.20
2022-11-29T10:39:59.361Z,24.73
2022-11-29T10:42:47.530Z,25.02
2022-11-29T10:45:17.045Z,23.05
2022-11-29T10:47:47.020Z,23.85
2022-11-29T10:50:19.551Z,22.27
2022-11-29T10:52:46.221Z,23.42
2022-11-29T10:55:15.864Z,23.10
2022-11-29T10:58:12.261Z,27.05
2022-11-29T11:00:55.252Z,25.52
2022-11-29T11:03:33.587Z,22.30
2022-11-29T11:06:17.060Z,23.98
2022-11-29T11:08:47.748Z,20.33
2022-11-29T11:11:22.750Z,24.88
2022-11-29T11:13:58.397Z,26.85
2022-11-29T11:16:26.616Z,24.00
2022-11-29T11:18:53.584Z,25.88
2022-11-29T11:21:24.030Z,25.45
2022-11-29T11:24:02.843Z,24.25
2022-11-29T11:26:42.959Z,23.30
2022-11-29T11:29:21.161Z,26.10
2022-11-29T11:31:54.434Z,24.45
2022-11-29T11:34:37.176Z,23.15
2022-11-29T11:37:33.433Z,24.75
2022-11-29T11:40:26.273Z,27.35
2022-11-29T11:42:53.032Z,27.00
2022-11-29T11:45:40.736Z,25.30
2022-11-29T11:48:19.069Z,24.45
2022-11-29T11:50:50.127Z,24.58
2022-11-29T11:53:24.237Z,28.60
2022-11-29T11:56:02.913Z,24.67
2022-11-29T11:58:37.113Z,28.98
2022-11-29T12:01:12.457Z,27.20
2022-11-29T12:03:50.757Z,26.38
2022-11-29T12:06:35.651Z,26.80
2022-11-29T12:09:08.393Z,23.80
2022-11-29T12:11:53.050Z,24.52
2022-11-29T12:14:35.589Z,24.88
2022-11-29T12:20:05.574Z,22.15
2022-11-29T12:22:48.486Z,29.10
2022-11-29T12:25:20.719Z,22.95
2022-11-29T12:27:49.955Z,24.13
2022-11-29T12:30:20.412Z,27.35
2022-11-29T12:33:44.579Z,24.75
2022-11-29T12:36:33.523Z,26.70
2022-11-29T12:39:08.613Z,23.95
2022-11-29T12:41:44.933Z,23.60
2022-11-29T12:44:22.662Z,25.77
2022-11-29T12:47:37.976Z,27.65
2022-11-29T12:50:46.276Z,25.35
2022-11-29T12:53:38.112Z,26.27
2022-11-29T12:56:14.813Z,29.87
2022-11-29T12:59:12.438Z,30.45
2022-11-29T13:01:57.949Z,26.92
2022-11-29T13:04:27.626Z,26.80
2022-11-29T13:07:02.945Z,28.50
2022-11-29T13:10:03.279Z,26.05
2022-11-29T13:13:14.555Z,25.23
2022-11-29T13:15:44.970Z,29.52
2022-11-29T13:18:17.217Z,30.30
2022-11-29T13:21:14.922Z,25.73
2022-11-29T13:24:08.251Z,30.15
2022-11-29T13:26:36.500Z,27.23
2022-11-29T13:29:04.007Z,26.67
2022-11-29T13:31:31.316Z,25.83
2022-11-29T13:34:15.226Z,28.05
2022-11-29T13:36:52.941Z,28.50
2022-11-29T13:39:47.214Z,24.67
2022-11-29T13:42:13.770Z,23.80
2022-11-29T13:45:08.113Z,32.28
2022-11-29T13:47:50.875Z,25.23
2022-11-29T13:50:43.683Z,27.83
2022-11-29T13:53:20.404Z,30.30
2022-11-29T13:56:02.594Z,31.33
2022-11-29T13:58:29.191Z,24.52
2022-11-29T14:01:02.750Z,24.67
2022-11-29T14:03:35.977Z,28.48
2022-11-29T14:06:02.795Z,30.25
2022-11-29T14:08:48.125Z,28.00
2022-11-29T14:11:45.808Z,32.55
2022-11-29T14:14:27.693Z,30.40
2022-11-29T14:17:05.699Z,26.83
2022-11-29T14:19:36.687Z,28.73
2022-11-29T14:22:05.317Z,28.73
2022-11-29T14:24:37.792Z,32.03
2022-11-29T14:27:07.582Z,27.35
2022-11-29T14:29:49.517Z,29.70
2022-11-29T14:32:21.994Z,34.50
2022-11-29T14:34:57.885Z,31.85
2022-11-29T14:37:59.032Z,31.83
2022-11-29T14:40:41.438Z,31.67
2022-11-29T14:43:35.221Z,35.10
2022-11-29T14:46:14.105Z,31.92
2022-11-29T14:48:55.997Z,31.30
2022-11-29T14:51:24.963Z,33.53
2022-11-29T14:54:18.260Z,33.03
2022-11-29T14:56:47.148Z,31.23
2022-11-29T14:59:35.792Z,34.92
2022-11-29T15:02:07.733Z,33.38
2022-11-29T15:04:36.433Z,30.45
2022-11-29T15:07:04.572Z,30.95
2022-11-29T15:09:33.256Z,31.88
2022-11-29T15:12:06.722Z,33.97
2022-11-29T15:14:58.595Z,34.20
2022-11-29T15:17:30.369Z,32.67
2022-11-29T15:20:00.053Z,31.25
2022-11-29T15:22:52.927Z,33.50
2022-11-29T15:25:23.989Z,31.08
2022-11-29T15:27:54.799Z,33.17
2022-11-29T15:30:30.550Z,32.65
2022-11-29T15:32:59.356Z,30.58
2022-11-29T15:35:26.284Z,34.53
2022-11-29T15:37:53.668Z,34.42
2022-11-29T15:40:23.152Z,32.47
2022-11-29T15:43:11.283Z,29.20
2022-11-29T15:45:39.188Z,33.35
2022-11-29T15:48:32.486Z,30.80
2022-11-29T15:51:29.971Z,32.40
2022-11-29T15:54:13.223Z,30.70
2022-11-29T15:56:43.911Z,30.50
2022-11-29T15:59:25.004Z,32.17
2022-11-29T16:01:54.536Z,29.15
2022-11-29T16:04:24.252Z,30.80
2022-11-29T16:06:51.817Z,33.05
2022-11-29T16:09:28.604Z,28.77
2022-11-29T16:11:55.257Z,31.58
2022-11-29T16:14:25.019Z,30.67
2022-11-29T16:16:54.346Z,31.60
2022-11-29T16:19:37.840Z,33.35
2022-11-29T16:22:16.987Z,30.42
2022-11-29T16:24:54.467Z,35.60
2022-11-29T16:27:22.287Z,34.17
2022-11-29T16:29:50.058Z,36.97
2022-11-29T16:32:37.278Z,31.02
2022-11-29T16:35:36.496Z,34.05
2022-11-29T16:38:04.618Z,36.78
2022-11-29T16:40:33.338Z,39.30
2022-11-29T16:43:23.441Z,34.15
2022-11-29T16:46:22.369Z,32.97
2022-11-29T16:48:50.228Z,33.78
2022-11-29T16:51:31.849Z,37.05
2022-11-29T16:54:22.898Z,37.87
2022-11-29T16:56:55.282Z,32.90
2022-11-29T17:01:55.130Z,31.33
2022-11-29T17:04:23.677Z,30.35
2022-11-29T17:06:52.680Z,30.10
2022-11-29T17:09:29.335Z,34.78
2022-11-29T17:11:59.538Z,32.03
2022-11-29T17:14:26.426Z,35.40
2022-11-29T17:16:53.105Z,32.13
2022-11-29T17:19:22.142Z,30.50
2022-11-29T17:21:49.135Z,32.25
2022-11-29T17:24:18.395Z,30.35
2022-11-29T17:26:45.739Z,31.85
2022-11-29T17:29:14.285Z,35.60
2022-11-29T17:31:42.774Z,34.45
2022-11-29T17:34:09.443Z,34.15
2022-11-29T17:36:36.415Z,33.35
2022-11-29T17:39:04.632Z,33.95
2022-11-29T17:41:32.552Z,34.40
2022-11-29T17:43:59.765Z,33.00
2022-11-29T17:46:32.316Z,31.35
2022-11-29T17:49:00.318Z,33.13
2022-11-29T17:54:14.208Z,30.85
2022-11-29T17:56:40.769Z,31.80
2022-11-29T17:59:07.397Z,27.30
2022-11-29T18:01:35.734Z,32.83
2022-11-29T18:04:04.476Z,34.80
2022-11-29T18:06:36.127Z,28.65
2022-11-29T18:09:04.778Z,30.88
2022-11-29T18:11:42.942Z,34.38
2022-11-29T18:14:13.996Z,33.17
2022-11-29T18:16:40.637Z,36.88
2022-11-29T18:19:11.643Z,35.72
2022-11-29T18:21:38.482Z,39.58
2022-11-29T18:24:06.976Z,36.10
2022-11-29T18:26:35.712Z,36.80
2022-11-29T18:29:06.936Z,36.13
2022-11-29T18:31:36.783Z,32.88
2022-11-29T18:34:11.620Z,33.08
2022-11-29T18:36:48.628Z,34.30
2022-11-29T18:39:17.548Z,36.85
2022-11-29T18:41:47.009Z,32.42
2022-11-29T18:44:15.464Z,37.17
2022-11-29T18:46:43.809Z,34.70
2022-11-29T18:49:15.198Z,34.22
2022-11-29T18:51:44.309Z,35.13
2022-11-29T18:54:11.473Z,37.58
2022-11-29T18:56:38.717Z,40.17
2022-11-29T18:59:10.943Z,38.88
2022-11-29T19:01:42.158Z,38.70
2022-11-29T19:04:20.260Z,38.15
2022-11-29T19:06:47.506Z,35.38
2022-11-29T19:09:17.377Z,35.90
2022-11-29T19:11:44.019Z,39.45
2022-11-29T19:14:12.518Z,38.83
2022-11-29T19:16:41.950Z,36.63
2022-11-29T19:19:08.698Z,41.10
2022-11-29T19:21:35.870Z,37.97
2022-11-29T19:24:04.607Z,40.13
2022-11-29T19:26:32.301Z,40.15
2022-11-29T19:29:00.721Z,40.72
2022-11-29T19:31:27.890Z,47.20
2022-11-29T19:33:55.257Z,41.08
2022-11-29T19:36:24.917Z,40.63
2022-11-29T19:38:54.061Z,41.15
2022-11-29T19:41:24.016Z,40.67
2022-11-29T19:43:51.126Z,37.28
2022-11-29T19:46:22.854Z,41.78
2022-11-29T19:48:52.313Z,35.78
2022-11-29T19:51:19.240Z,44.72
2022-11-29T19:53:46.906Z,39.75
2022-11-29T19:56:15.728Z,40.88
2022-11-29T19:58:43.036Z,40.80
2022-11-29T20:01:18.416Z,39.22
2022-11-29T20:03:45.477Z,37.80
2022-11-29T20:06:16.165Z,39.08
2022-11-29T20:08:43.695Z,38.80
2022-11-29T20:11:22.590Z,43.17
2022-11-29T20:13:58.194Z,43.15
2022-11-29T20:16:26.017Z,38.30
2022-11-29T20:18:53.504Z,40.22
2022-11-29T20:21:25.352Z,41.70
2022-11-29T20:23:57.368Z,37.80
2022-11-29T20:26:24.771Z,38.38
2022-11-29T20:28:51.589Z,39.00
2022-11-29T20:31:21.458Z,41.50
2022-11-29T20:33:49.547Z,43.35
2022-11-29T20:36:29.823Z,40.92
2022-11-29T20:39:36.064Z,43.03
2022-11-29T20:42:25.001Z,39.90
2022-11-29T20:45:06.915Z,41.80
2022-11-29T20:47:40.969Z,43.38
2022-11-29T20:50:08.064Z,38.97
2022-11-29T20:52:50.664Z,45.95
2022-11-29T20:55:17.802Z,41.15
2022-11-29T20:57:44.517Z,42.70
2022-11-29T21:00:12.166Z,41.90
2022-11-29T21:02:39.553Z,41.70
2022-11-29T21:05:06.956Z,44.88
2022-11-29T21:07:33.949Z,43.65
2022-11-29T21:10:01.664Z,42.58
2022-11-29T21:12:29.733Z,41.85
2022-11-29T21:14:57.028Z,42.67
2022-11-29T21:17:27.536Z,45.95
2022-11-29T21:19:58.716Z,40.08
2022-11-29T21:23:00.652Z,38.88
2022-11-29T21:25:36.615Z,44.23
2022-11-29T21:28:08.898Z,42.05
2022-11-29T21:33:02.424Z,39.60
2022-11-29T21:35:28.991Z,48.15
2022-11-29T21:38:00.244Z,42.88
2022-11-29T21:40:27.646Z,42.53
2022-11-29T21:42:54.332Z,45.05
2022-11-29T21:45:20.906Z,48.17
2022-11-29T21:47:47.554Z,42.78
2022-11-29T21:50:14.314Z,47.45
2022-11-29T21:52:40.951Z,45.58
2022-11-29T21:55:07.925Z,47.05
2022-11-29T21:57:34.489Z,46.13
2022-11-29T22:00:01.114Z,41.35
2022-11-29T22:02:27.807Z,44.22
2022-11-29T22:04:54.589Z,48.40
2022-11-29T22:07:21.216Z,45.65
2022-11-29T22:09:47.881Z,46.28
2022-11-29T22:12:32.928Z,47.47
2022-11-29T22:15:00.861Z,38.90
2022-11-29T22:17:27.508Z,42.90
2022-11-29T22:19:54.121Z,43.42
2022-11-29T22:22:20.703Z,43.58
2022-11-29T22:24:47.584Z,42.88
2022-11-29T22:27:14.549Z,41.80
2022-11-29T22:29:41.137Z,42.33
2022-11-29T22:32:07.802Z,42.63
2022-11-29T22:34:34.429Z,43.30
2022-11-29T22:37:01.097Z,42.22
2022-11-29T22:39:27.874Z,43.95
2022-11-29T22:41:55.335Z,40.20
2022-11-29T22:44:25.692Z,48.45
2022-11-29T22:46:52.563Z,44.05
2022-11-29T22:49:19.733Z,42.65
2022-11-29T22:51:46.395Z,43.45
2022-11-29T22:54:16.217Z,42.72
2022-11-29T22:56:43.988Z,38.15
2022-11-29T22:59:10.753Z,41.17
2022-11-29T23:01:39.602Z,40.70
2022-11-29T23:04:08.027Z,40.88
2022-11-29T23:06:37.677Z,44.75
2022-11-29T23:09:07.219Z,43.13
2022-11-29T23:11:33.844Z,42.38
2022-11-29T23:14:00.537Z,44.42
2022-11-29T23:16:29.186Z,38.97
2022-11-29T23:18:58.155Z,41.28
2022-11-29T23:21:27.574Z,38.22
2022-11-29T23:23:56.729Z,38.80
2022-11-29T23:26:24.749Z,38.33
2022-11-29T23:28:52.437Z,40.53
2022-11-29T23:31:19.633Z,37.70
2022-11-29T23:33:46.443Z,40.65
2022-11-29T23:36:14.002Z,35.08
2022-11-29T23:38:41.493Z,38.00
2022-11-29T23:41:08.386Z,34.30
2022-11-29T23:43:36.965Z,37.40
2022-11-29T23:46:15.334Z,39.60
2022-11-29T23:48:42.509Z,35.33
2022-11-29T23:51:10.034Z,38.17
2022-11-29T23:53:36.719Z,34.92
2022-11-29T23:56:05.934Z,40.20
2022-11-29T23:58:34.037Z,33.03
